createdAt,value
2023-01-22T00:01:30.520Z,11.73
2023-01-22T00:03:59.062Z,11.27
2023-01-22T00:06:27.950Z,9.52
2023-01-22T00:08:56.274Z,12.05
2023-01-22T00:11:24.868Z,10.25
2023-01-22T00:13:53.399Z,11.70
2023-01-22T00:16:22.568Z,10.98
2023-01-22T00:18:51.065Z,10.80
2023-01-22T00:21:27.064Z,10.13
2023-01-22T00:23:55.743Z,10.27
2023-01-22T00:26:24.012Z,10.77
2023-01-22T00:28:52.977Z,11.60
2023-01-22T00:31:21.698Z,11.13
2023-01-22T00:33:50.137Z,10.05
2023-01-22T00:36:21.389Z,10.27
2023-01-22T00:38:51.249Z,10.07
2023-01-22T00:41:20.752Z,12.63
2023-01-22T00:43:52.691Z,10.73
2023-01-22T00:46:22.244Z,9.55
2023-01-22T00:48:51.038Z,11.50
2023-01-22T00:51:19.967Z,10.57
2023-01-22T00:53:48.500Z,12.05
2023-01-22T00:56:18.282Z,11.93
2023-01-22T00:58:46.787Z,10.07
2023-01-22T01:01:16.559Z,11.02
2023-01-22T01:03:45.184Z,11.35
2023-01-22T01:06:20.752Z,10.82
2023-01-22T01:08:50.374Z,11.38
2023-01-22T01:11:26.086Z,13.13
2023-01-22T01:13:55.124Z,11.32
2023-01-22T01:16:27.349Z,12.40
2023-01-22T01:18:59.189Z,11.35
2023-01-22T01:21:29.024Z,12.93
2023-01-22T01:23:58.557Z,10.00
2023-01-22T01:26:27.914Z,11.90
2023-01-22T01:28:57.480Z,12.32
2023-01-22T01:31:26.913Z,13.27
2023-01-22T01:33:58.806Z,11.50
2023-01-22T01:36:47.219Z,11.05
2023-01-22T01:39:17.675Z,10.10
2023-01-22T01:41:46.555Z,9.50
2023-01-22T01:44:18.668Z,13.63
2023-01-22T01:46:58.781Z,12.50
2023-01-22T01:49:45.909Z,10.30
2023-01-22T01:52:15.982Z,15.57
2023-01-22T01:54:50.359Z,12.45
2023-01-22T01:57:22.980Z,13.98
2023-01-22T01:59:52.825Z,12.90
2023-01-22T02:02:22.057Z,12.68
2023-01-22T02:04:51.778Z,12.68
2023-01-22T02:07:21.542Z,11.75
2023-01-22T02:09:49.867Z,12.40
2023-01-22T02:12:18.722Z,11.52
2023-01-22T02:14:50.778Z,11.20
2023-01-22T02:17:22.540Z,12.30
2023-01-22T02:19:53.038Z,14.10
2023-01-22T02:22:25.119Z,12.90
2023-01-22T02:24:54.022Z,12.43
2023-01-22T02:27:22.877Z,12.25
2023-01-22T02:29:52.161Z,11.48
2023-01-22T02:32:21.241Z,12.40
2023-01-22T02:34:49.773Z,10.55
2023-01-22T02:37:18.597Z,13.52
2023-01-22T02:39:46.919Z,11.95
2023-01-22T02:42:15.321Z,11.25
2023-01-22T02:44:44.573Z,12.98
2023-01-22T02:47:14.362Z,13.20
2023-01-22T02:49:42.970Z,12.13
2023-01-22T02:52:11.717Z,11.10
2023-01-22T02:54:40.608Z,11.77
2023-01-22T02:57:09.445Z,12.70
2023-01-22T02:59:38.317Z,13.95
2023-01-22T03:02:06.678Z,10.82
2023-01-22T03:04:35.448Z,12.63
2023-01-22T03:07:04.727Z,12.40
2023-01-22T03:09:33.768Z,11.80
2023-01-22T03:12:03.187Z,13.13
2023-01-22T03:14:52.962Z,14.00
2023-01-22T03:17:39.333Z,12.20
2023-01-22T03:20:27.147Z,12.15
2023-01-22T03:22:55.255Z,11.75
2023-01-22T03:25:23.659Z,11.73
2023-01-22T03:28:17.147Z,10.20
2023-01-22T03:33:18.867Z,10.35
2023-01-22T03:35:49.958Z,11.63
2023-01-22T03:38:21.293Z,11.23
2023-01-22T03:40:49.894Z,11.30
2023-01-22T03:43:18.350Z,11.82
2023-01-22T03:45:47.127Z,12.27
2023-01-22T03:48:17.399Z,12.07
2023-01-22T03:50:49.891Z,11.63
2023-01-22T03:53:18.199Z,11.68
2023-01-22T03:55:46.431Z,11.55
2023-01-22T03:58:15.193Z,10.73
2023-01-22T04:00:43.592Z,12.70
2023-01-22T04:03:11.773Z,12.50
2023-01-22T04:05:41.673Z,10.07
2023-01-22T04:08:09.664Z,10.68
2023-01-22T04:10:43.508Z,11.52
2023-01-22T04:13:12.297Z,11.63
2023-01-22T04:15:45.373Z,12.55
2023-01-22T04:18:36.043Z,12.23
2023-01-22T04:21:18.215Z,10.20
2023-01-22T04:23:53.508Z,12.13
2023-01-22T04:26:22.010Z,13.38
2023-01-22T04:28:50.715Z,12.30
2023-01-22T04:31:21.735Z,11.52
2023-01-22T04:34:08.550Z,11.85
2023-01-22T04:36:44.379Z,11.32
2023-01-22T04:39:12.329Z,10.85
2023-01-22T04:41:40.823Z,10.60
2023-01-22T04:44:09.585Z,12.30
2023-01-22T04:46:38.251Z,12.15
2023-01-22T04:49:07.109Z,14.60
2023-01-22T04:51:36.945Z,12.38
2023-01-22T04:54:05.682Z,10.88
2023-01-22T04:56:34.066Z,11.10
2023-01-22T04:59:02.935Z,12.45
2023-01-22T05:01:32.009Z,11.93
2023-01-22T05:04:05.123Z,12.60
2023-01-22T05:06:35.918Z,10.93
2023-01-22T05:09:05.192Z,11.90
2023-01-22T05:11:46.148Z,11.70
2023-01-22T05:14:15.129Z,13.63
2023-01-22T05:16:44.649Z,12.10
2023-01-22T05:19:13.333Z,12.43
2023-01-22T05:21:42.847Z,11.48
2023-01-22T05:24:13.767Z,12.25
2023-01-22T05:26:42.067Z,13.57
2023-01-22T05:29:15.429Z,13.32
2023-01-22T05:32:16.708Z,10.90
2023-01-22T05:34:50.306Z,12.02
2023-01-22T05:37:18.952Z,14.10
2023-01-22T05:39:47.636Z,12.65
2023-01-22T05:42:17.594Z,12.57
2023-01-22T05:44:49.780Z,13.20
2023-01-22T05:47:22.204Z,11.25
2023-01-22T05:50:11.327Z,13.65
2023-01-22T05:52:40.074Z,11.68
2023-01-22T05:55:10.045Z,11.48
2023-01-22T05:57:47.518Z,13.70
2023-01-22T06:00:18.812Z,10.60
2023-01-22T06:02:58.117Z,10.95
2023-01-22T06:05:27.599Z,11.65
2023-01-22T06:08:03.400Z,10.43
2023-01-22T06:10:39.648Z,13.32
2023-01-22T06:13:08.360Z,12.18
2023-01-22T06:15:36.680Z,10.48
2023-01-22T06:18:24.162Z,12.85
2023-01-22T06:20:53.477Z,13.07
2023-01-22T06:23:23.788Z,10.40
2023-01-22T06:25:56.659Z,10.57
2023-01-22T06:28:25.540Z,11.25
2023-01-22T06:30:58.510Z,12.82
2023-01-22T06:33:26.983Z,10.15
2023-01-22T06:35:56.943Z,14.85
2023-01-22T06:38:25.903Z,12.98
2023-01-22T06:40:59.634Z,12.75
2023-01-22T06:43:29.506Z,10.57
2023-01-22T06:45:58.185Z,12.02
2023-01-22T06:48:48.578Z,12.07
2023-01-22T20:49:21.807Z,34.57
2023-01-22T20:51:53.736Z,37.97
2023-01-22T20:54:25.906Z,43.22
2023-01-22T20:56:56.600Z,34.13
2023-01-22T20:59:28.687Z,21.15
2023-01-22T21:02:00.191Z,18.50
2023-01-22T21:04:29.314Z,27.20
2023-01-22T21:06:58.479Z,42.63
2023-01-22T21:09:28.551Z,36.63
2023-01-22T21:11:57.474Z,31.48
2023-01-22T21:14:26.335Z,30.58
2023-01-22T21:16:54.845Z,22.40
2023-01-22T21:19:26.669Z,21.05
2023-01-22T21:21:56.153Z,16.65
2023-01-22T21:24:25.122Z,17.20
2023-01-22T21:26:54.323Z,15.95
2023-01-22T21:29:24.048Z,21.20
2023-01-22T21:31:54.826Z,35.60
2023-01-22T21:34:25.493Z,40.30
2023-01-22T21:36:55.912Z,50.15
2023-01-22T21:39:26.704Z,66.05
2023-01-22T21:42:16.873Z,61.90
2023-01-22T21:45:05.314Z,62.28
2023-01-22T21:47:34.523Z,39.80
2023-01-22T21:50:05.745Z,32.55
2023-01-22T21:52:36.970Z,35.38
2023-01-22T21:55:10.079Z,34.92
2023-01-22T21:57:41.116Z,20.45
2023-01-22T22:00:10.610Z,14.15
2023-01-22T22:02:40.242Z,12.95
2023-01-22T22:05:09.643Z,15.18
2023-01-22T22:07:39.392Z,14.02
2023-01-22T22:10:13.594Z,13.98
2023-01-22T22:12:43.376Z,13.80
2023-01-22T22:15:13.081Z,14.52
2023-01-22T22:17:41.568Z,14.20
2023-01-22T22:20:11.466Z,17.77
2023-01-22T22:22:40.279Z,13.68
2023-01-22T22:25:09.294Z,14.95
2023-01-22T22:27:37.942Z,14.88
2023-01-22T22:30:06.918Z,15.60
2023-01-22T22:32:35.663Z,14.52
2023-01-22T22:35:04.405Z,13.32
2023-01-22T22:37:32.733Z,14.40
2023-01-22T22:40:01.550Z,15.15
2023-01-22T22:42:30.318Z,16.52
2023-01-22T22:44:59.019Z,16.15
2023-01-22T22:47:27.622Z,14.43
2023-01-22T22:49:56.540Z,16.52
2023-01-22T22:52:24.940Z,14.77
2023-01-22T22:54:53.867Z,15.52
2023-01-22T22:57:22.185Z,15.45
2023-01-22T22:59:50.429Z,16.23
2023-01-22T23:02:18.601Z,18.23
2023-01-22T23:04:46.872Z,16.50
2023-01-22T23:07:15.279Z,16.33
2023-01-22T23:09:43.683Z,16.35
2023-01-22T23:12:11.879Z,16.02
2023-01-22T23:14:40.150Z,16.77
2023-01-22T23:17:08.190Z,15.35
2023-01-22T23:19:36.569Z,16.80
2023-01-22T23:22:04.975Z,16.00
2023-01-22T23:24:33.220Z,17.65
2023-01-22T23:27:02.076Z,17.00
2023-01-22T23:29:31.143Z,15.70
2023-01-22T23:31:59.694Z,15.30
2023-01-22T23:34:28.014Z,16.05
2023-01-22T23:36:56.386Z,17.30
2023-01-22T23:39:24.426Z,18.33
2023-01-22T23:41:53.242Z,16.10
2023-01-22T23:44:21.793Z,15.82
2023-01-22T23:46:50.340Z,17.65
2023-01-22T23:49:18.844Z,22.75
2023-01-22T23:51:47.283Z,34.72
2023-01-22T23:54:15.753Z,25.42
2023-01-22T23:56:44.237Z,14.50
2023-01-22T23:59:13.552Z,14.95
